Time;durP1;ratioP1;P1;durP2;ratioP2;P2;SDS_P1;SDS_P2;PMS_P1;PMS_P2;Temp;Humidity;BMP_temperature;BMP_pressure;BME280_temperature;BME280_humidity;BME280_pressure;Samples;Min_cycle;Max_cycle;Signal;HPM_P1;HPM_P2
2021/12/26 00:02:24;;;;;;;9.23;4.00;;;-6.20;99.90;;;;;;5052559;28;20084;-65
2021/12/26 00:04:50;;;;;;;8.55;3.58;;;-6.30;99.90;;;;;;5052986;28;20069;-65
2021/12/26 00:07:16;;;;;;;9.48;3.60;;;-6.40;99.90;;;;;;5052701;28;20110;-65
2021/12/26 00:09:42;;;;;;;6.43;2.97;;;-6.40;99.90;;;;;;5035485;28;20048;-65
2021/12/26 00:12:08;;;;;;;11.63;4.03;;;-6.40;99.90;;;;;;5053921;28;20481;-65
2021/12/26 00:14:34;;;;;;;7.03;3.42;;;-6.40;99.90;;;;;;5050893;28;20452;-65
2021/12/26 00:17:00;;;;;;;8.40;3.88;;;-6.40;99.90;;;;;;5033761;28;20045;-64
2021/12/26 00:19:25;;;;;;;9.13;3.95;;;-6.40;99.90;;;;;;5033517;28;20394;-65
2021/12/26 00:21:51;;;;;;;6.82;3.33;;;-6.40;99.90;;;;;;5032065;28;20120;-65
2021/12/26 00:24:17;;;;;;;7.85;3.75;;;-6.40;99.90;;;;;;5057331;28;20044;-64
2021/12/26 00:26:43;;;;;;;10.18;3.72;;;-6.40;99.90;;;;;;5051643;28;20033;-64
2021/12/26 00:29:08;;;;;;;6.20;3.33;;;-6.50;99.90;;;;;;5052936;28;20037;-65
2021/12/26 00:31:34;;;;;;;6.28;3.50;;;-6.30;99.90;;;;;;5053201;28;20344;-66
2021/12/26 00:34:00;;;;;;;9.48;3.80;;;-6.50;99.90;;;;;;5051820;28;20338;-65
2021/12/26 00:36:25;;;;;;;8.20;3.80;;;-6.50;99.90;;;;;;5053134;28;20056;-65
2021/12/26 00:38:51;;;;;;;8.70;3.63;;;-6.50;99.90;;;;;;5064507;28;20045;-65
2021/12/26 00:41:17;;;;;;;8.98;4.43;;;-6.50;99.90;;;;;;5033171;28;20372;-65
2021/12/26 00:43:43;;;;;;;9.80;3.45;;;-6.50;99.90;;;;;;5033365;28;20498;-65
2021/12/26 00:46:08;;;;;;;10.52;3.78;;;-6.50;99.90;;;;;;5052949;28;20041;-68
2021/12/26 00:48:34;;;;;;;10.13;3.42;;;-6.60;99.90;;;;;;5053013;28;20432;-65
2021/12/26 00:51:00;;;;;;;9.65;4.18;;;-6.60;99.90;;;;;;5036685;28;20064;-66
2021/12/26 00:53:28;;;;;;;7.65;3.33;;;-6.50;99.90;;;;;;5033022;28;20055;-66
2021/12/26 00:55:53;;;;;;;8.00;3.42;;;-6.50;99.90;;;;;;5047191;28;20052;-66
2021/12/26 00:58:20;;;;;;;6.43;3.42;;;-6.60;99.90;;;;;;5052516;28;20115;-65
2021/12/26 01:00:49;;;;;;;9.02;2.95;;;-6.50;99.90;;;;;;5050208;28;20063;-66
2021/12/26 01:03:16;;;;;;;;;;;-6.50;99.90;;;;;;5052660;28;20053;-65
2021/12/26 01:05:44;;;;;;;6.38;2.97;;;-6.50;99.90;;;;;;5052222;28;19925;-66
2021/12/26 01:08:14;;;;;;;5.88;2.85;;;-6.50;99.90;;;;;;5052334;28;20171;-66
2021/12/26 01:10:44;;;;;;;8.77;3.45;;;-6.50;99.90;;;;;;5052572;28;20045;-65
2021/12/26 01:13:21;;;;;;;8.05;4.07;;;-6.50;99.90;;;;;;5051674;28;20048;-65
2021/12/26 01:15:48;;;;;;;8.65;3.03;;;-6.50;99.90;;;;;;5067532;28;20099;-64
2021/12/26 01:18:15;;;;;;;6.55;2.80;;;-6.50;99.90;;;;;;5051087;28;20037;-65
2021/12/26 01:23:10;;;;;;;6.45;2.83;;;-6.50;99.90;;;;;;5051981;28;20111;-67
2021/12/26 01:25:36;;;;;;;5.25;2.83;;;-6.50;99.90;;;;;;5051894;28;20044;-65
2021/12/26 01:28:03;;;;;;;5.75;2.90;;;-6.50;99.90;;;;;;5050694;28;20101;-66
2021/12/26 01:30:29;;;;;;;8.68;2.83;;;-6.50;99.90;;;;;;5051403;28;20040;-66
2021/12/26 01:32:54;;;;;;;3.92;2.25;;;-6.50;99.90;;;;;;5051041;28;20029;-66
2021/12/26 01:35:20;;;;;;;4.75;2.40;;;-6.40;99.90;;;;;;5050257;28;20376;-64
2021/12/26 01:37:46;;;;;;;7.50;2.67;;;-6.40;99.90;;;;;;5052189;28;20033;-64
2021/12/26 01:40:11;;;;;;;9.00;2.85;;;-6.40;99.90;;;;;;5051868;28;20064;-65
2021/12/26 01:42:37;;;;;;;7.05;2.75;;;-6.40;99.90;;;;;;5049963;28;20063;-65
2021/12/26 01:45:06;;;;;;;6.90;3.03;;;-6.30;99.90;;;;;;5052027;28;20075;-65
2021/12/26 01:47:32;;;;;;;9.95;3.50;;;-6.30;99.90;;;;;;5051640;28;20048;-65
2021/12/26 01:49:57;;;;;;;7.07;3.13;;;-6.30;99.90;;;;;;5051729;28;20049;-66
2021/12/26 01:52:23;;;;;;;7.00;3.17;;;-6.30;99.90;;;;;;5049128;28;20140;-65
2021/12/26 01:55:00;;;;;;;5.57;2.70;;;-6.30;99.90;;;;;;5050410;28;20124;-65
2021/12/26 01:57:26;;;;;;;6.35;3.30;;;-6.30;99.90;;;;;;5050953;28;20045;-65
2021/12/26 01:59:52;;;;;;;8.52;3.20;;;-6.30;99.90;;;;;;5051608;28;20098;-65
2021/12/26 02:02:18;;;;;;;5.03;2.53;;;-6.30;99.90;;;;;;5051091;28;20080;-66
2021/12/26 02:04:44;;;;;;;6.65;3.00;;;-6.40;99.90;;;;;;5050121;28;20157;-66
2021/12/26 02:07:12;;;;;;;8.75;3.30;;;-6.40;99.90;;;;;;5062879;28;20080;-66
2021/12/26 02:09:38;;;;;;;6.93;3.00;;;-6.40;99.90;;;;;;5031847;28;20383;-65
2021/12/26 02:12:05;;;;;;;8.18;3.10;;;-6.40;99.90;;;;;;5031808;28;20047;-65
2021/12/26 02:14:31;;;;;;;5.07;2.53;;;-6.40;99.90;;;;;;5053583;28;20040;-66
2021/12/26 02:16:57;;;;;;;5.65;2.58;;;-6.40;99.90;;;;;;5054106;28;20131;-66
2021/12/26 02:19:23;;;;;;;7.20;2.40;;;-6.50;99.90;;;;;;5053896;28;20052;-66
2021/12/26 02:27:31;;;;;;;5.63;2.30;;;-6.40;99.90;;;;;;5035819;28;20057;-68
2021/12/26 02:30:03;;;;;;;7.75;2.28;;;-6.40;99.90;;;;;;5035632;28;20120;-65
2021/12/26 02:32:30;;;;;;;7.60;3.13;;;-6.40;99.90;;;;;;5035550;28;20332;-66
2021/12/26 02:34:56;;;;;;;5.75;2.75;;;-6.40;99.90;;;;;;5053440;28;20049;-66
2021/12/26 02:37:21;;;;;;;4.63;2.45;;;-6.40;99.90;;;;;;5036608;28;20067;-65
2021/12/26 02:39:47;;;;;;;5.43;2.22;;;-6.40;99.90;;;;;;5054943;28;20360;-65
2021/12/26 02:42:13;;;;;;;6.75;2.50;;;-6.40;99.90;;;;;;5055265;28;20077;-66
2021/12/26 02:44:38;;;;;;;5.30;2.55;;;-6.40;99.90;;;;;;5054650;28;20117;-65
2021/12/26 02:47:04;;;;;;;4.88;2.50;;;-6.40;99.90;;;;;;5053769;28;20053;-65
2021/12/26 02:49:30;;;;;;;7.47;2.88;;;-6.40;99.90;;;;;;5055323;28;20052;-66
2021/12/26 02:51:56;;;;;;;6.43;3.08;;;-6.40;99.90;;;;;;5055015;28;20143;-66
2021/12/26 02:54:26;;;;;;;5.55;2.80;;;-6.40;99.90;;;;;;5054767;28;20052;-64
2021/12/26 02:56:52;;;;;;;4.40;2.22;;;-6.40;99.90;;;;;;5053291;28;20033;-64
2021/12/26 02:59:17;;;;;;;7.95;3.08;;;-6.40;99.90;;;;;;5052747;28;20044;-65
2021/12/26 03:01:43;;;;;;;4.85;2.70;;;-6.40;99.90;;;;;;5053320;28;20383;-65
2021/12/26 03:04:09;;;;;;;8.52;2.78;;;-6.40;99.90;;;;;;5054966;28;20053;-65
2021/12/26 03:09:08;;;;;;;3.30;1.92;;;-6.40;99.90;;;;;;5034962;28;20116;-65
2021/12/26 03:11:37;;;;;;;3.95;2.42;;;-6.20;99.90;;;;;;5033104;28;20123;-66
2021/12/26 03:14:02;;;;;;;4.55;2.28;;;-6.40;99.90;;;;;;5041580;28;20036;-66
2021/12/26 03:16:28;;;;;;;3.83;2.10;;;-6.30;99.90;;;;;;5052909;28;20525;-65
2021/12/26 03:18:59;;;;;;;5.75;2.38;;;-6.30;99.90;;;;;;5054149;28;20057;-66
2021/12/26 03:21:27;;;;;;;7.32;2.53;;;-6.30;99.90;;;;;;5048440;28;20044;-66
2021/12/26 03:23:53;;;;;;;5.38;2.55;;;-6.30;99.90;;;;;;5046742;28;20146;-65
2021/12/26 03:26:19;;;;;;;6.32;2.17;;;-6.30;99.90;;;;;;5039709;28;20062;-66
2021/12/26 03:28:44;;;;;;;5.07;2.50;;;-6.30;99.90;;;;;;5051764;28;20036;-65
2021/12/26 03:31:11;;;;;;;9.00;2.85;;;-6.30;99.90;;;;;;5053390;28;20037;-65
2021/12/26 03:33:37;;;;;;;7.07;2.60;;;-6.30;99.90;;;;;;5052992;28;20945;-65
2021/12/26 03:36:03;;;;;;;4.45;2.03;;;-6.30;99.90;;;;;;5054155;28;20052;-65
2021/12/26 03:38:29;;;;;;;5.35;2.40;;;-6.30;99.90;;;;;;5053758;28;20370;-65
2021/12/26 03:40:55;;;;;;;4.93;2.15;;;-6.30;99.90;;;;;;5054144;28;20077;-64
2021/12/26 03:43:22;;;;;;;4.22;2.33;;;-6.30;99.90;;;;;;5053257;28;20132;-65
2021/12/26 03:45:50;;;;;;;5.80;2.42;;;-6.30;99.90;;;;;;5053932;28;20056;-66
2021/12/26 03:48:18;;;;;;;8.95;2.85;;;-6.30;99.90;;;;;;5053434;28;20045;-65
2021/12/26 03:50:44;;;;;;;5.47;2.65;;;-6.40;99.90;;;;;;5035421;28;20125;-65
2021/12/26 03:53:12;;;;;;;6.25;1.80;;;-6.40;99.90;;;;;;5033848;28;20058;-65
2021/12/26 03:55:38;;;;;;;5.88;2.50;;;-6.40;99.90;;;;;;5034525;28;20049;-66
2021/12/26 03:58:04;;;;;;;4.15;2.00;;;-6.40;99.90;;;;;;5033913;28;20053;-66
2021/12/26 04:00:30;;;;;;;6.32;2.50;;;-6.40;99.90;;;;;;5024559;28;20581;-67
2021/12/26 04:02:56;;;;;;;7.25;2.30;;;-6.40;99.90;;;;;;5051802;28;20119;-65
2021/12/26 04:05:22;;;;;;;6.22;2.50;;;-6.40;99.90;;;;;;5053471;28;20360;-65
2021/12/26 04:07:48;;;;;;;7.00;2.40;;;-6.40;99.90;;;;;;5032805;28;20467;-65
2021/12/26 04:10:16;;;;;;;4.82;2.20;;;-6.40;99.90;;;;;;5033979;28;20061;-65
2021/12/26 04:12:46;;;;;;;5.45;2.53;;;-6.50;99.90;;;;;;5033792;28;20049;-65
2021/12/26 04:15:14;;;;;;;3.92;2.03;;;-6.30;99.90;;;;;;5049243;28;20539;-66
2021/12/26 04:17:41;;;;;;;4.85;2.33;;;-6.50;99.90;;;;;;5051306;28;20056;-66
2021/12/26 04:20:07;;;;;;;7.68;2.30;;;-6.50;99.90;;;;;;5053581;28;20430;-66
2021/12/26 04:22:33;;;;;;;4.63;2.60;;;-6.50;99.90;;;;;;5051368;28;20136;-66
2021/12/26 04:24:59;;;;;;;5.57;2.45;;;-6.60;99.90;;;;;;5053381;28;20049;-66
2021/12/26 04:27:25;;;;;;;6.03;2.25;;;-6.60;99.90;;;;;;5053559;28;20075;-66
2021/12/26 04:29:52;;;;;;;6.93;2.58;;;-6.50;99.90;;;;;;5052507;28;20040;-66
2021/12/26 04:32:17;;;;;;;4.90;2.22;;;-6.60;99.90;;;;;;5053181;28;20046;-66
2021/12/26 04:34:43;;;;;;;10.35;2.38;;;-6.60;99.90;;;;;;5051794;28;20083;-66
2021/12/26 04:37:09;;;;;;;4.63;2.30;;;-6.60;99.90;;;;;;5051636;28;20048;-65
2021/12/26 04:39:35;;;;;;;6.22;2.20;;;-6.60;99.90;;;;;;5053167;28;20463;-65
2021/12/26 04:42:00;;;;;;;6.30;2.45;;;-6.60;99.90;;;;;;5052201;28;20081;-66
2021/12/26 04:44:27;;;;;;;4.72;2.13;;;-6.60;99.90;;;;;;5051518;28;20045;-66
2021/12/26 04:46:53;;;;;;;5.57;2.60;;;-6.60;99.90;;;;;;5052732;28;20091;-65
2021/12/26 04:49:19;;;;;;;4.57;2.05;;;-6.60;99.90;;;;;;5052401;28;20084;-64
2021/12/26 04:51:44;;;;;;;4.22;2.50;;;-6.60;99.90;;;;;;5052898;28;20052;-66
2021/12/26 04:54:10;;;;;;;5.82;2.10;;;-6.60;99.90;;;;;;5051253;28;20435;-65
2021/12/26 04:56:36;;;;;;;6.10;2.35;;;-6.60;99.90;;;;;;5052059;28;20047;-65
2021/12/26 04:59:03;;;;;;;4.30;2.20;;;-6.70;99.90;;;;;;5052690;28;20388;-65
2021/12/26 05:01:30;;;;;;;6.50;2.22;;;-6.60;99.90;;;;;;5049803;28;20060;-66
2021/12/26 05:03:55;;;;;;;5.43;2.22;;;-6.60;99.90;;;;;;5038330;28;20049;-66
2021/12/26 05:06:21;;;;;;;4.28;2.30;;;-6.60;99.90;;;;;;5044567;28;20048;-65
2021/12/26 05:08:47;;;;;;;4.05;1.85;;;-6.60;99.90;;;;;;5050537;28;20044;-64
2021/12/26 05:11:12;;;;;;;4.75;2.33;;;-6.60;99.90;;;;;;5052410;28;20041;-64
2021/12/26 05:13:38;;;;;;;7.72;2.33;;;-6.60;99.90;;;;;;5051698;28;20045;-65
2021/12/26 05:16:04;;;;;;;4.45;2.30;;;-6.70;99.90;;;;;;5052307;28;20064;-65
2021/12/26 05:18:30;;;;;;;6.68;2.80;;;-6.70;99.90;;;;;;5052270;28;20168;-64
2021/12/26 05:20:56;;;;;;;5.50;2.47;;;-6.70;99.90;;;;;;5052197;28;20509;-65
2021/12/26 05:23:23;;;;;;;4.78;2.65;;;-6.70;99.90;;;;;;5051118;28;20113;-65
2021/12/26 05:25:50;;;;;;;6.10;2.58;;;-6.70;99.90;;;;;;5052388;28;20554;-66
2021/12/26 05:28:15;;;;;;;5.80;2.35;;;-6.60;99.90;;;;;;5051659;28;20148;-66
2021/12/26 05:30:41;;;;;;;6.43;2.50;;;-6.60;99.90;;;;;;5051211;28;20087;-66
2021/12/26 05:33:07;;;;;;;5.95;2.10;;;-6.00;99.90;;;;;;5052267;28;20063;-66
2021/12/26 05:35:33;;;;;;;7.20;2.45;;;-6.60;99.90;;;;;;5051915;28;20072;-66
2021/12/26 05:37:59;;;;;;;5.25;2.45;;;-6.50;99.90;;;;;;5049777;28;20044;-65
2021/12/26 05:40:25;;;;;;;6.35;2.42;;;-6.50;99.90;;;;;;5051891;28;20124;-66
2021/12/26 05:42:51;;;;;;;5.75;2.70;;;-6.50;99.90;;;;;;5051825;28;20098;-66
2021/12/26 05:45:17;;;;;;;3.92;2.05;;;-6.60;99.90;;;;;;5050027;28;20452;-66
2021/12/26 05:47:43;;;;;;;6.53;2.67;;;-6.60;99.90;;;;;;5051388;28;20131;-66
2021/12/26 05:50:12;;;;;;;5.97;2.38;;;-6.60;99.90;;;;;;5050765;28;20079;-66
2021/12/26 05:52:37;;;;;;;;;;;-6.60;99.90;;;;;;5051274;28;20080;-65
2021/12/26 05:55:04;;;;;;;3.90;2.22;;;-6.60;99.90;;;;;;5052028;28;19971;-65
2021/12/26 05:57:30;;;;;;;3.88;1.77;;;-6.60;99.90;;;;;;5051051;28;20391;-64
2021/12/26 05:59:56;;;;;;;4.38;2.15;;;-6.50;99.90;;;;;;5051936;28;20123;-65
2021/12/26 06:02:22;;;;;;;5.22;2.95;;;-6.50;99.90;;;;;;5050079;28;20051;-65
2021/12/26 06:04:47;;;;;;;4.43;2.10;;;-6.40;99.90;;;;;;5051877;28;20056;-65
2021/12/26 06:07:13;;;;;;;5.65;2.20;;;-6.60;99.90;;;;;;5051398;28;20068;-65
2021/12/26 06:09:39;;;;;;;7.10;2.47;;;-6.50;99.90;;;;;;5051878;28;20444;-65
2021/12/26 06:12:05;;;;;;;6.72;3.00;;;-6.60;99.90;;;;;;5051500;28;20482;-66
2021/12/26 06:14:31;;;;;;;5.30;2.50;;;-6.60;99.90;;;;;;5051062;28;20048;-66
2021/12/26 06:16:56;;;;;;;4.72;2.15;;;-6.40;99.90;;;;;;5051432;28;20045;-65
2021/12/26 06:19:22;;;;;;;7.07;2.92;;;-6.60;99.90;;;;;;5050849;28;20110;-66
2021/12/26 06:21:48;;;;;;;5.63;2.63;;;-6.60;99.90;;;;;;5051240;28;20090;-66
2021/12/26 06:24:14;;;;;;;6.25;2.70;;;-6.60;99.90;;;;;;5032859;28;20395;-65
2021/12/26 06:26:40;;;;;;;5.13;2.42;;;-6.40;99.90;;;;;;5051471;28;20113;-65
2021/12/26 06:29:06;;;;;;;7.38;2.90;;;-6.60;99.90;;;;;;5051575;28;20550;-65
2021/12/26 06:31:31;;;;;;;6.40;2.45;;;-6.40;99.90;;;;;;5050036;28;20047;-66
2021/12/26 06:33:57;;;;;;;4.97;2.30;;;-6.70;99.90;;;;;;5049622;28;20033;-66
2021/12/26 06:36:22;;;;;;;5.32;2.50;;;-6.70;99.90;;;;;;5051557;28;20048;-66
2021/12/26 06:38:48;;;;;;;5.68;2.95;;;-6.70;99.90;;;;;;5051413;28;20136;-65
2021/12/26 06:41:15;;;;;;;4.97;2.50;;;-6.70;99.90;;;;;;5049253;28;20049;-66
2021/12/26 06:43:42;;;;;;;6.43;2.65;;;-6.70;99.90;;;;;;5051431;28;20088;-65
2021/12/26 06:46:08;;;;;;;6.25;2.60;;;-6.70;99.90;;;;;;5051164;28;20406;-65
2021/12/26 06:48:34;;;;;;;5.57;3.17;;;-6.60;99.90;;;;;;5051081;28;20037;-65
2021/12/26 06:51:01;;;;;;;8.13;3.03;;;-6.70;99.90;;;;;;5049694;28;20088;-64
2021/12/26 06:53:27;;;;;;;4.72;2.53;;;-6.70;99.90;;;;;;5049597;28;20052;-64
2021/12/26 06:55:53;;;;;;;5.32;2.70;;;-6.70;99.90;;;;;;5049264;28;20451;-64
2021/12/26 06:58:20;;;;;;;6.70;2.88;;;-6.70;99.90;;;;;;5051503;28;20094;-64
2021/12/26 07:00:46;;;;;;;5.10;2.55;;;-6.70;99.90;;;;;;5053342;28;20406;-64
2021/12/26 07:03:12;;;;;;;6.70;2.80;;;-6.80;99.90;;;;;;5054269;28;20083;-65
2021/12/26 07:05:38;;;;;;;5.53;2.70;;;-6.50;99.90;;;;;;5054340;28;20064;-65
2021/12/26 07:08:04;;;;;;;7.57;2.92;;;-6.50;99.90;;;;;;5053671;28;20070;-65
2021/12/26 07:10:30;;;;;;;6.50;3.17;;;-6.80;99.90;;;;;;5054600;28;20467;-66
2021/12/26 07:12:55;;;;;;;5.10;2.80;;;-6.80;99.90;;;;;;5054361;28;20053;-66
2021/12/26 07:15:21;;;;;;;6.97;2.88;;;-6.80;99.90;;;;;;5052541;28;20672;-66
2021/12/26 07:17:47;;;;;;;7.72;3.10;;;-6.80;99.90;;;;;;5054531;28;20455;-65
2021/12/26 07:20:16;;;;;;;6.35;2.83;;;-6.80;99.90;;;;;;5052855;28;20140;-65
2021/12/26 07:22:46;;;;;;;7.05;3.53;;;-6.70;99.90;;;;;;5053492;28;20044;-66
2021/12/26 07:25:12;;;;;;;4.97;3.08;;;-6.70;99.90;;;;;;5054396;28;20409;-66
2021/12/26 07:27:39;;;;;;;6.60;2.75;;;-6.70;99.90;;;;;;5053129;28;20134;-65
2021/12/26 07:30:06;;;;;;;6.75;3.28;;;-6.80;99.90;;;;;;5053025;28;20049;-66
2021/12/26 07:32:32;;;;;;;5.03;2.63;;;-6.70;99.90;;;;;;5053812;28;20048;-65
2021/12/26 07:34:58;;;;;;;5.47;3.53;;;-6.70;99.90;;;;;;5054513;28;20123;-66
2021/12/26 07:37:27;;;;;;;5.70;2.92;;;-6.70;99.90;;;;;;5053730;28;20522;-66
2021/12/26 07:39:54;;;;;;;5.93;2.88;;;-6.50;99.90;;;;;;5053285;28;20048;-66
2021/12/26 07:42:20;;;;;;;4.60;2.80;;;-6.50;99.90;;;;;;5054067;28;20036;-66
2021/12/26 07:44:46;;;;;;;10.20;3.10;;;-6.70;99.90;;;;;;5053965;28;20183;-66
2021/12/26 07:47:11;;;;;;;8.15;3.15;;;-6.70;99.90;;;;;;5051960;28;20041;-66
2021/12/26 07:49:37;;;;;;;6.45;3.22;;;-6.70;99.90;;;;;;5053667;28;20043;-65
2021/12/26 07:52:11;;;;;;;5.38;2.78;;;-6.40;99.90;;;;;;5054063;28;20080;-65
2021/12/26 07:54:37;;;;;;;6.93;3.47;;;-6.70;99.90;;;;;;5052967;28;20049;-66
2021/12/26 07:57:04;;;;;;;6.25;3.30;;;-6.70;99.90;;;;;;5053727;28;20049;-64
2021/12/26 07:59:30;;;;;;;6.57;3.25;;;-6.70;99.90;;;;;;5053305;28;20044;-65
2021/12/26 08:01:55;;;;;;;6.95;3.58;;;-6.70;99.90;;;;;;5052207;28;20120;-66
2021/12/26 08:04:21;;;;;;;6.97;3.05;;;-6.50;99.90;;;;;;5052098;28;20140;-66
2021/12/26 08:06:46;;;;;;;6.65;3.75;;;-6.60;99.90;;;;;;5051955;28;20057;-65
2021/12/26 08:09:12;;;;;;;6.82;4.13;;;-6.60;99.90;;;;;;5050711;28;20184;-65
2021/12/26 08:11:38;;;;;;;6.45;3.42;;;-6.60;99.90;;;;;;5051070;28;20055;-66
2021/12/26 08:14:03;;;;;;;8.07;3.67;;;-6.60;99.90;;;;;;5053530;28;20045;-66
2021/12/26 08:16:30;;;;;;;7.70;2.97;;;-6.60;99.90;;;;;;5052254;28;20120;-65
2021/12/26 08:18:56;;;;;;;6.55;3.47;;;-6.60;99.90;;;;;;5053044;28;20061;-65
2021/12/26 08:21:22;;;;;;;6.18;3.50;;;-6.60;99.90;;;;;;5052694;28;20053;-65
2021/12/26 08:23:47;;;;;;;8.90;3.97;;;-5.40;99.90;;;;;;5052216;28;20390;-64
2021/12/26 08:26:14;;;;;;;11.32;3.70;;;-6.50;99.90;;;;;;5053132;28;20090;-65
2021/12/26 08:28:39;;;;;;;12.55;3.78;;;-6.50;99.90;;;;;;5052100;28;20045;-65
2021/12/26 08:31:06;;;;;;;9.05;4.28;;;-6.50;99.90;;;;;;5053450;28;20040;-66
2021/12/26 08:33:32;;;;;;;8.18;3.55;;;-6.50;99.90;;;;;;5051650;28;20041;-64
2021/12/26 08:35:58;;;;;;;7.80;4.13;;;-6.50;99.90;;;;;;5051851;28;20049;-64
2021/12/26 08:38:25;;;;;;;7.45;4.10;;;-6.50;99.90;;;;;;5053052;28;20076;-65
2021/12/26 08:40:52;;;;;;;8.48;3.97;;;-6.50;99.90;;;;;;5053287;28;20056;-65
2021/12/26 08:43:19;;;;;;;9.45;4.80;;;-6.40;99.90;;;;;;5042462;28;20038;-66
2021/12/26 08:45:45;;;;;;;7.68;3.90;;;-6.30;99.90;;;;;;5031607;28;20132;-64
2021/12/26 08:48:11;;;;;;;7.30;4.00;;;-6.30;99.90;;;;;;5031434;28;20056;-65
2021/12/26 08:50:36;;;;;;;9.65;4.63;;;-6.20;99.90;;;;;;5048214;28;20045;-65
2021/12/26 08:53:04;;;;;;;6.93;4.03;;;-6.20;99.90;;;;;;5053674;28;20049;-66
2021/12/26 08:55:29;;;;;;;6.03;3.78;;;-6.10;99.90;;;;;;5051369;28;20093;-65
2021/12/26 08:57:55;;;;;;;8.20;4.45;;;-6.10;99.90;;;;;;5053537;28;20045;-65
2021/12/26 09:00:22;;;;;;;11.25;3.92;;;-6.00;99.90;;;;;;5039042;28;20048;-66
2021/12/26 09:02:49;;;;;;;7.53;3.90;;;-6.00;99.90;;;;;;5051436;28;20049;-66
2021/12/26 09:05:16;;;;;;;7.65;4.05;;;-5.90;99.90;;;;;;5051828;28;20048;-65
2021/12/26 09:07:42;;;;;;;9.73;4.23;;;-5.80;99.90;;;;;;5051289;28;20045;-66
2021/12/26 09:10:09;;;;;;;7.57;3.83;;;-5.80;99.90;;;;;;5051124;28;20353;-66
2021/12/26 09:12:35;;;;;;;6.15;3.70;;;-5.70;99.90;;;;;;5052963;28;20059;-66
2021/12/26 09:15:03;;;;;;;9.52;3.85;;;-5.70;99.90;;;;;;5052938;28;20048;-68
2021/12/26 09:17:29;;;;;;;9.47;4.23;;;-5.50;99.90;;;;;;5052175;28;20049;-65
2021/12/26 09:19:55;;;;;;;8.20;4.20;;;-5.50;99.90;;;;;;5052671;28;20064;-65
2021/12/26 09:22:20;;;;;;;8.55;4.20;;;-5.30;99.90;;;;;;5067405;28;20175;-65
2021/12/26 09:24:46;;;;;;;8.32;3.90;;;-5.00;99.90;;;;;;5052202;28;20092;-67
2021/12/26 09:27:14;;;;;;;8.07;3.22;;;-4.70;99.90;;;;;;5041464;28;20044;-67
2021/12/26 09:29:39;;;;;;;6.50;3.75;;;-4.50;99.90;;;;;;5032506;28;20077;-66
2021/12/26 09:32:06;;;;;;;7.28;3.67;;;-4.40;99.90;;;;;;5032238;28;20122;-66
2021/12/26 09:34:33;;;;;;;8.77;4.15;;;-4.50;99.90;;;;;;5042862;28;20077;-65
2021/12/26 09:37:01;;;;;;;8.48;3.92;;;-4.40;99.90;;;;;;5049984;28;20136;-66
2021/12/26 09:39:26;;;;;;;7.53;3.67;;;-4.20;99.90;;;;;;5052341;28;20114;-65
2021/12/26 09:41:52;;;;;;;7.72;4.13;;;-4.00;99.90;;;;;;5051729;28;20455;-66
2021/12/26 09:44:19;;;;;;;6.53;3.67;;;-3.90;99.90;;;;;;5052398;28;20049;-67
2021/12/26 09:46:44;;;;;;;8.40;3.58;;;-3.60;99.90;;;;;;5050847;28;20107;-66
2021/12/26 09:49:10;;;;;;;6.95;3.85;;;-3.30;99.90;;;;;;5050091;28;20471;-66
2021/12/26 09:51:36;;;;;;;5.75;3.10;;;-3.10;99.90;;;;;;5052616;28;20059;-67
2021/12/26 09:54:04;;;;;;;5.97;3.45;;;-2.90;99.90;;;;;;5052102;28;20116;-66
2021/12/26 09:56:30;;;;;;;6.30;3.28;;;-2.70;99.90;;;;;;5030776;28;20395;-65
2021/12/26 09:59:00;;;;;;;7.18;3.58;;;-2.90;99.90;;;;;;5046988;28;20075;-66
2021/12/26 10:01:39;;;;;;;6.07;3.58;;;-3.10;99.90;;;;;;5031714;28;20049;-66
2021/12/26 10:04:16;;;;;;;6.03;3.58;;;-3.50;99.90;;;;;;5046479;28;20682;-67
2021/12/26 10:06:42;;;;;;;7.93;4.38;;;-3.90;99.90;;;;;;5051911;28;20051;-66
2021/12/26 10:09:10;;;;;;;6.72;3.45;;;-4.10;99.90;;;;;;5051001;28;20063;-66
2021/12/26 10:11:41;;;;;;;9.20;3.80;;;-4.20;99.90;;;;;;5033807;28;20041;-65
2021/12/26 10:14:09;;;;;;;7.50;3.40;;;-4.30;99.90;;;;;;5037378;28;20133;-65
2021/12/26 10:16:44;;;;;;;7.15;3.72;;;-4.40;99.90;;;;;;5030657;28;20037;-65
2021/12/26 10:19:11;;;;;;;8.65;4.15;;;-4.40;99.90;;;;;;5030369;28;20050;-65
2021/12/26 10:21:44;;;;;;;5.95;3.60;;;-4.40;99.90;;;;;;5043755;28;20045;-65
2021/12/26 10:24:20;;;;;;;6.10;2.90;;;-4.40;99.90;;;;;;5050985;28;20045;-66
2021/12/26 10:26:59;;;;;;;5.68;3.00;;;-4.30;99.90;;;;;;5051815;28;20348;-66
2021/12/26 10:29:30;;;;;;;7.47;3.80;;;-4.30;99.90;;;;;;5049476;28;20052;-66
2021/12/26 10:32:08;;;;;;;7.75;3.88;;;-4.20;99.90;;;;;;5051466;28;20049;-65
2021/12/26 10:34:38;;;;;;;6.93;3.85;;;-4.30;99.90;;;;;;5054160;28;20086;-65
2021/12/26 10:37:15;;;;;;;8.68;3.90;;;-4.20;99.90;;;;;;5054606;28;20436;-66
2021/12/26 10:39:44;;;;;;;7.25;3.90;;;-4.20;99.90;;;;;;5055403;28;20052;-66
2021/12/26 10:42:13;;;;;;;7.40;3.95;;;-4.10;99.90;;;;;;5055023;28;20044;-66
2021/12/26 10:44:50;;;;;;;7.20;3.53;;;-4.10;99.90;;;;;;5055362;28;20045;-65
2021/12/26 10:47:25;;;;;;;6.65;3.45;;;-4.00;99.90;;;;;;5053385;28;20459;-65
2021/12/26 10:49:56;;;;;;;7.75;4.03;;;-3.90;99.90;;;;;;5055329;28;20076;-64
2021/12/26 10:52:23;;;;;;;7.32;3.90;;;-3.90;99.90;;;;;;5055131;28;20091;-66
2021/12/26 10:55:11;;;;;;;9.35;3.92;;;-3.80;99.90;;;;;;5053897;28;20467;-67
2021/12/26 10:57:37;;;;;;;7.15;3.88;;;-3.80;99.90;;;;;;5054679;28;20114;-66
2021/12/26 11:00:10;;;;;;;7.18;3.65;;;-3.80;99.90;;;;;;5053937;28;20530;-66
2021/12/26 11:02:37;;;;;;;8.88;3.90;;;-3.80;99.90;;;;;;5054999;28;20124;-66
2021/12/26 11:05:13;;;;;;;5.72;3.47;;;-3.70;99.90;;;;;;5053525;28;20456;-66
2021/12/26 11:07:40;;;;;;;5.90;3.33;;;-3.70;99.90;;;;;;5054172;28;20386;-65
2021/12/26 11:10:22;;;;;;;7.90;4.43;;;-3.70;99.90;;;;;;5055070;28;20045;-66
2021/12/26 11:12:55;;;;;;;7.82;3.42;;;-3.70;99.90;;;;;;5036818;28;20061;-66
2021/12/26 11:15:24;;;;;;;7.47;3.78;;;-3.60;99.90;;;;;;5054100;28;20098;-65
2021/12/26 11:17:58;;;;;;;6.30;3.78;;;-3.60;99.90;;;;;;5055341;28;20484;-65
2021/12/26 11:20:31;;;;;;;7.07;3.70;;;-3.50;99.90;;;;;;5034803;28;20056;-66
2021/12/26 11:22:59;;;;;;;6.78;3.67;;;-3.50;99.90;;;;;;5034807;28;20069;-66
2021/12/26 11:25:25;;;;;;;6.82;3.65;;;-3.50;99.90;;;;;;5033185;28;20446;-68
2021/12/26 11:27:51;;;;;;;11.98;4.07;;;-3.40;99.90;;;;;;5052408;28;20049;-65
2021/12/26 11:30:18;;;;;;;6.25;3.70;;;-3.40;99.90;;;;;;5054864;28;20060;-66
2021/12/26 11:32:44;;;;;;;8.95;3.80;;;-3.30;99.90;;;;;;5035944;28;20056;-64
2021/12/26 11:35:10;;;;;;;6.55;3.45;;;-3.30;99.90;;;;;;5054406;28;20048;-67
2021/12/26 11:37:38;;;;;;;10.70;4.30;;;-3.20;99.90;;;;;;5054166;28;20466;-65
2021/12/26 11:40:08;;;;;;;8.55;4.20;;;-3.20;99.90;;;;;;5035357;28;20079;-65
2021/12/26 11:42:37;;;;;;;6.47;3.80;;;-3.10;99.90;;;;;;5052729;28;20049;-65
2021/12/26 11:45:11;;;;;;;5.97;3.65;;;-3.10;99.90;;;;;;5054207;28;20479;-66
2021/12/26 11:48:10;;;;;;;5.85;3.45;;;-3.00;99.90;;;;;;5053778;28;20128;-66
2021/12/26 11:51:14;;;;;;;7.88;4.07;;;-3.00;99.90;;;;;;5053102;28;20405;-64
2021/12/26 11:53:51;;;;;;;7.40;3.83;;;-2.90;99.90;;;;;;5052513;28;20099;-66
2021/12/26 11:56:41;;;;;;;6.78;4.00;;;-2.90;99.90;;;;;;5054211;28;20037;-65
2021/12/26 11:59:33;;;;;;;7.10;3.60;;;-2.90;99.90;;;;;;5033431;28;20049;-66
2021/12/26 12:01:59;;;;;;;7.88;3.75;;;-2.80;99.90;;;;;;5049917;28;20044;-65
2021/12/26 12:04:25;;;;;;;7.82;3.42;;;-2.70;99.90;;;;;;5053836;28;20060;-65
2021/12/26 12:06:55;;;;;;;8.23;4.35;;;-2.70;99.90;;;;;;5053448;28;20041;-65
2021/12/26 12:09:39;;;;;;;7.35;3.65;;;-2.70;99.90;;;;;;5053066;28;20434;-66
2021/12/26 12:12:14;;;;;;;8.20;4.00;;;-2.60;99.90;;;;;;5052262;28;20129;-65
2021/12/26 12:14:47;;;;;;;5.38;3.45;;;-2.60;99.90;;;;;;5053811;28;20084;-65
2021/12/26 12:17:13;;;;;;;7.97;4.07;;;-2.50;99.90;;;;;;5052997;28;20645;-66
2021/12/26 12:20:08;;;;;;;5.80;3.25;;;-2.50;99.90;;;;;;5051452;28;20049;-65
2021/12/26 12:22:35;;;;;;;9.05;3.70;;;-2.40;99.90;;;;;;5052008;28;20128;-66
2021/12/26 12:25:32;;;;;;;9.48;3.80;;;-1.70;99.90;;;;;;5052800;28;20084;-65
2021/12/26 12:28:29;;;;;;;9.88;4.82;;;-2.30;99.90;;;;;;5053440;28;20128;-66
2021/12/26 12:30:54;;;;;;;7.57;3.78;;;-2.30;99.90;;;;;;5052051;28;20052;-66
2021/12/26 12:33:28;;;;;;;8.40;3.70;;;-2.30;99.90;;;;;;5053109;28;20095;-66
2021/12/26 12:35:59;;;;;;;8.82;3.75;;;-2.20;99.90;;;;;;5053571;28;20052;-65
2021/12/26 12:38:44;;;;;;;9.43;3.92;;;-2.20;99.90;;;;;;5052691;28;20060;-65
2021/12/26 12:41:28;;;;;;;8.50;3.38;;;-2.10;99.90;;;;;;5051797;28;20060;-66
2021/12/26 12:44:07;;;;;;;6.15;3.70;;;-3.10;99.90;;;;;;5051557;28;20114;-67
2021/12/26 12:46:54;;;;;;;9.88;3.83;;;-2.00;99.90;;;;;;5052393;28;20044;-66
2021/12/26 12:49:40;;;;;;;5.78;3.20;;;-2.00;99.90;;;;;;5051552;28;20162;-66
2021/12/26 12:52:06;;;;;;;9.80;4.00;;;-2.00;99.90;;;;;;5032716;28;20479;-66
2021/12/26 12:54:32;;;;;;;7.57;3.65;;;-2.00;99.90;;;;;;5033222;28;20041;-67
2021/12/26 12:57:06;;;;;;;5.72;3.38;;;-1.90;99.90;;;;;;5033261;28;20050;-66
2021/12/26 12:59:40;;;;;;;10.75;3.80;;;-1.90;99.90;;;;;;5053045;28;20041;-65
2021/12/26 13:02:06;;;;;;;6.38;3.45;;;-1.90;99.90;;;;;;5051405;28;20186;-65
2021/12/26 13:04:47;;;;;;;10.10;3.28;;;-1.90;99.90;;;;;;5051955;28;20128;-66